Time;durP1;ratioP1;P1;durP2;ratioP2;P2;SDS_P1;SDS_P2;PMS_P1;PMS_P2;Temp;Humidity;BMP_temperature;BMP_pressure;BME280_temperature;BME280_humidity;BME280_pressure;Samples;Min_cycle;Max_cycle;Signal;HPM_P1;HPM_P2
2022/12/13 00:00:17;;;;;;;142.32;59.08;;;-3.40;99.90;;;;;;5061157;28;20040;-64
2022/12/13 00:02:46;;;;;;;137.52;61.22;;;-3.20;99.90;;;;;;5108367;27;20278;-65
2022/12/13 00:05:12;;;;;;;133.38;60.08;;;-3.90;99.90;;;;;;5077925;28;20103;-64
2022/12/13 00:07:39;;;;;;;141.23;59.17;;;-3.40;99.90;;;;;;5078366;28;20079;-63
2022/12/13 00:10:05;;;;;;;134.10;58.85;;;-3.20;99.90;;;;;;5076559;28;20547;-64
2022/12/13 00:12:32;;;;;;;146.02;59.65;;;-3.90;99.90;;;;;;5076732;28;20097;-64
2022/12/13 00:14:57;;;;;;;139.30;58.75;;;-4.00;99.90;;;;;;5077009;28;20051;-64
2022/12/13 00:17:23;;;;;;;137.20;56.40;;;-3.60;99.90;;;;;;5077429;28;20035;-64
2022/12/13 00:19:49;;;;;;;135.60;57.45;;;-4.30;99.90;;;;;;5075584;28;20075;-65
2022/12/13 00:22:18;;;;;;;149.95;61.17;;;-4.20;99.90;;;;;;5079614;28;20050;-63
2022/12/13 00:24:44;;;;;;;152.95;59.30;;;-4.40;99.90;;;;;;5074801;28;20071;-66
2022/12/13 00:27:09;;;;;;;135.00;56.65;;;-4.40;99.90;;;;;;5058962;28;20132;-64
2022/12/13 00:29:35;;;;;;;140.27;58.85;;;-4.50;99.90;;;;;;5060463;28;20048;-65
2022/12/13 00:32:01;;;;;;;148.98;59.45;;;-3.90;99.90;;;;;;5079279;28;20050;-64
2022/12/13 00:34:27;;;;;;;141.77;60.05;;;-4.40;99.90;;;;;;5081176;28;20047;-64
2022/12/13 00:36:53;;;;;;;150.82;61.15;;;-4.20;99.90;;;;;;5078544;28;20043;-65
2022/12/13 00:39:19;;;;;;;138.73;58.55;;;-4.30;99.90;;;;;;5077373;28;20059;-65
2022/12/13 00:41:45;;;;;;;127.00;56.95;;;-4.60;99.90;;;;;;5074825;28;20047;-65
2022/12/13 00:44:13;;;;;;;147.10;59.72;;;-4.50;99.90;;;;;;5060432;28;20090;-65
2022/12/13 00:46:40;;;;;;;144.30;60.03;;;-4.20;99.90;;;;;;5108777;27;20113;-65
2022/12/13 00:49:05;;;;;;;148.70;59.88;;;-4.30;99.90;;;;;;5076033;28;20423;-65
2022/12/13 00:51:33;;;;;;;142.60;59.60;;;-3.90;99.90;;;;;;5058455;28;20039;-62
2022/12/13 00:54:00;;;;;;;142.85;59.28;;;-4.60;99.90;;;;;;5076916;28;20574;-65
2022/12/13 00:56:27;;;;;;;156.95;61.97;;;-4.00;99.90;;;;;;5083906;28;20513;-65
2022/12/13 00:58:54;;;;;;;149.98;63.75;;;-4.60;99.90;;;;;;5076954;28;20442;-63
2022/12/13 01:01:23;;;;;;;173.77;66.80;;;-4.50;99.90;;;;;;5076449;28;20133;-65
2022/12/13 01:03:49;;;;;;;169.35;70.25;;;-4.10;99.90;;;;;;5076356;28;20062;-64
2022/12/13 01:06:21;;;;;;;175.98;70.43;;;-4.70;99.90;;;;;;5075184;28;20044;-64
2022/12/13 01:08:47;;;;;;;169.20;67.18;;;-3.90;99.90;;;;;;5077144;28;20358;-64
2022/12/13 01:11:14;;;;;;;170.70;66.72;;;-3.70;99.90;;;;;;5077744;28;20219;-65
2022/12/13 01:13:40;;;;;;;150.45;65.18;;;-3.60;99.90;;;;;;5072465;28;20131;-65
2022/12/13 01:16:08;;;;;;;174.63;67.13;;;-4.30;99.90;;;;;;5077434;28;20397;-64
2022/12/13 01:18:34;;;;;;;157.15;65.07;;;-4.40;99.90;;;;;;5075881;28;20043;-63
2022/12/13 01:21:05;;;;;;;156.90;68.15;;;-4.00;99.90;;;;;;5076355;28;20682;-64
2022/12/13 01:23:32;;;;;;;160.02;66.07;;;-4.50;99.90;;;;;;5076455;28;20119;-64
2022/12/13 01:26:00;;;;;;;158.43;66.57;;;-4.40;99.90;;;;;;5108520;27;20150;-65
2022/12/13 01:28:26;;;;;;;166.45;67.63;;;-4.20;99.90;;;;;;5104414;27;20461;-64
2022/12/13 01:31:01;;;;;;;162.23;68.82;;;-3.90;99.90;;;;;;5077347;28;20568;-64
2022/12/13 01:33:27;;;;;;;158.27;63.30;;;-4.60;99.90;;;;;;5075511;28;20367;-63
2022/12/13 01:35:53;;;;;;;159.77;66.38;;;-4.60;99.90;;;;;;5089689;28;20374;-64
2022/12/13 01:38:19;;;;;;;156.40;69.25;;;-3.80;99.90;;;;;;5077227;28;20056;-64
2022/12/13 01:40:48;;;;;;;153.93;57.85;;;-4.40;99.90;;;;;;5077275;28;20234;-65
2022/12/13 01:43:15;;;;;;;162.93;66.82;;;-4.50;99.90;;;;;;5074984;28;20812;-65
2022/12/13 01:45:42;;;;;;;165.00;62.63;;;-4.30;99.90;;;;;;5104619;28;20101;-64
2022/12/13 01:48:16;;;;;;;150.68;57.63;;;-3.50;99.90;;;;;;5058226;28;20093;-65
2022/12/13 01:50:48;;;;;;;156.85;63.03;;;-4.50;99.90;;;;;;5075731;28;20051;-64
2022/12/13 01:53:18;;;;;;;152.57;65.70;;;-4.30;99.90;;;;;;5075261;28;20071;-65
2022/12/13 01:55:47;;;;;;;159.35;67.53;;;-4.20;99.90;;;;;;5076089;28;20043;-64
2022/12/13 01:58:13;;;;;;;157.30;65.97;;;-3.60;99.90;;;;;;5075169;28;20090;-65
2022/12/13 02:00:40;;;;;;;147.98;63.03;;;-4.20;99.90;;;;;;5073164;28;20470;-64
2022/12/13 02:03:06;;;;;;;153.70;62.83;;;-3.90;99.90;;;;;;5042401;28;20055;-65
2022/12/13 02:05:41;;;;;;;144.30;61.63;;;-4.50;99.90;;;;;;5107367;28;20040;-64
2022/12/13 02:08:10;;;;;;;138.50;60.78;;;-3.90;99.90;;;;;;5056636;28;20028;-64
2022/12/13 02:10:36;;;;;;;144.10;62.88;;;-4.10;99.90;;;;;;5076456;28;20033;-64
2022/12/13 02:13:02;;;;;;;143.75;63.55;;;-3.90;99.90;;;;;;5081128;28;20035;-62
2022/12/13 02:15:42;;;;;;;148.25;61.30;;;-4.00;99.90;;;;;;5113581;27;20131;-62
2022/12/13 02:18:25;;;;;;;154.23;63.67;;;-4.20;99.90;;;;;;5084716;28;20047;-64
2022/12/13 02:21:10;;;;;;;154.00;64.40;;;-4.20;99.90;;;;;;5082852;28;20515;-65
2022/12/13 02:24:28;;;;;;;153.02;63.78;;;-4.50;99.90;;;;;;5078024;28;20079;-65
2022/12/13 02:27:00;;;;;;;143.85;61.67;;;-3.50;99.90;;;;;;5080563;28;20051;-65
2022/12/13 02:29:57;;;;;;;139.63;60.60;;;-4.20;99.90;;;;;;5079017;28;20527;-65
2022/12/13 02:32:49;;;;;;;149.68;64.57;;;-3.60;99.90;;;;;;5075858;28;20131;-64
2022/12/13 02:35:27;;;;;;;145.07;62.67;;;-4.40;99.90;;;;;;5078967;28;21136;-65
2022/12/13 02:37:58;;;;;;;150.35;61.75;;;-3.70;99.90;;;;;;5078881;28;20047;-65
2022/12/13 02:41:02;;;;;;;146.32;61.40;;;-3.70;99.90;;;;;;5079599;28;20044;-64
2022/12/13 02:43:35;;;;;;;149.10;60.58;;;-4.60;99.90;;;;;;5003434;28;20045;-65
2022/12/13 02:46:04;;;;;;;138.23;58.97;;;-4.50;99.90;;;;;;5018935;28;20450;-66
2022/12/13 02:48:33;;;;;;;128.57;55.13;;;-3.60;99.90;;;;;;5057338;28;20068;-65
2022/12/13 02:51:02;;;;;;;141.32;60.72;;;-4.00;99.90;;;;;;5078629;28;20044;-65
2022/12/13 02:53:29;;;;;;;134.10;58.83;;;-4.50;99.90;;;;;;5077270;28;20101;-64
2022/12/13 02:55:55;;;;;;;138.85;60.17;;;-4.40;99.90;;;;;;5079238;28;20100;-64
2022/12/13 02:58:34;;;;;;;137.57;59.65;;;-3.50;99.90;;;;;;5109843;27;20047;-65
2022/12/13 03:01:05;;;;;;;141.32;59.08;;;-3.70;99.90;;;;;;5079524;28;20032;-64
2022/12/13 03:03:57;;;;;;;141.82;60.15;;;-3.60;99.90;;;;;;5075181;28;20135;-64
2022/12/13 03:06:52;;;;;;;136.43;59.00;;;-3.70;99.90;;;;;;5082739;28;20051;-64
2022/12/13 03:09:55;;;;;;;137.57;59.72;;;-4.40;99.90;;;;;;5078160;28;20075;-65
2022/12/13 03:15:54;;;;;;;132.07;57.47;;;-4.60;99.90;;;;;;5078210;28;20048;-63
2022/12/13 03:18:22;;;;;;;127.25;56.08;;;-4.40;99.90;;;;;;5075365;28;20599;-64
2022/12/13 03:21:01;;;;;;;130.63;57.70;;;-4.20;99.90;;;;;;5079890;28;20334;-64
2022/12/13 03:23:30;;;;;;;125.25;58.45;;;-4.00;99.90;;;;;;5078892;28;20035;-65
2022/12/13 03:26:00;;;;;;;127.80;56.50;;;-4.60;99.90;;;;;;5078240;28;20032;-64
2022/12/13 03:28:26;;;;;;;134.60;57.13;;;-4.20;99.90;;;;;;5060437;28;20036;-64
2022/12/13 03:30:51;;;;;;;126.22;56.65;;;-4.80;99.90;;;;;;5077927;28;20040;-64
2022/12/13 03:33:17;;;;;;;120.93;54.08;;;-4.40;99.90;;;;;;5077865;28;20036;-66
2022/12/13 03:35:43;;;;;;;123.05;53.70;;;-4.50;99.90;;;;;;5075414;28;20046;-64
2022/12/13 03:38:12;;;;;;;126.25;55.38;;;-4.30;99.90;;;;;;5078289;28;20101;-63
2022/12/13 03:40:41;;;;;;;120.30;49.53;;;-4.70;99.90;;;;;;5076605;28;20141;-64
2022/12/13 03:43:07;;;;;;;130.40;56.40;;;-4.20;99.90;;;;;;5078219;28;20068;-64
2022/12/13 03:45:32;;;;;;;119.15;54.20;;;-3.80;99.90;;;;;;5061195;28;20075;-64
2022/12/13 03:47:59;;;;;;;123.88;56.90;;;-4.20;99.90;;;;;;5078048;28;20036;-64
2022/12/13 03:50:24;;;;;;;119.13;54.55;;;-3.90;99.90;;;;;;5074383;28;20032;-65
2022/12/13 03:52:56;;;;;;;118.80;55.33;;;-3.90;99.90;;;;;;5061300;28;20039;-64
2022/12/13 03:55:22;;;;;;;122.53;54.65;;;-3.80;99.90;;;;;;5077271;28;20043;-65
2022/12/13 03:57:47;;;;;;;120.20;56.13;;;-4.10;99.90;;;;;;5060448;28;20044;-65
2022/12/13 04:00:13;;;;;;;124.32;52.63;;;-4.00;99.90;;;;;;5077674;28;20111;-64
2022/12/13 04:02:39;;;;;;;118.68;54.63;;;-3.90;99.90;;;;;;5077313;28;20544;-64
2022/12/13 04:05:05;;;;;;;114.57;53.35;;;-4.10;99.90;;;;;;5078422;28;20129;-64
2022/12/13 04:07:31;;;;;;;119.25;54.60;;;-4.50;99.90;;;;;;5076482;28;20051;-64
2022/12/13 04:09:57;;;;;;;118.00;50.95;;;-3.80;99.90;;;;;;5078015;28;20251;-63
2022/12/13 04:15:07;;;;;;;113.50;52.28;;;-4.40;99.90;;;;;;5083242;27;20286;-62
2022/12/13 04:17:33;;;;;;;111.68;52.28;;;-4.70;99.90;;;;;;5084015;28;20032;-64
2022/12/13 04:20:02;;;;;;;117.20;54.47;;;-4.40;99.90;;;;;;5082422;28;20070;-63
2022/12/13 04:22:28;;;;;;;115.50;52.17;;;-4.70;99.90;;;;;;5081393;28;20040;-63
2022/12/13 04:24:53;;;;;;;111.32;50.80;;;-4.70;99.90;;;;;;5097369;28;20401;-63
2022/12/13 04:27:19;;;;;;;110.80;52.90;;;-4.80;99.90;;;;;;5081020;28;20048;-63
2022/12/13 04:29:45;;;;;;;110.25;51.25;;;-4.40;99.90;;;;;;5083592;28;20478;-63
2022/12/13 04:32:10;;;;;;;109.22;50.40;;;-4.80;99.90;;;;;;5083642;28;20452;-63
2022/12/13 04:34:36;;;;;;;108.45;52.78;;;-4.70;99.90;;;;;;5082042;28;20319;-62
2022/12/13 04:37:02;;;;;;;108.95;50.33;;;-4.90;99.90;;;;;;5082045;28;20036;-63
2022/12/13 04:39:27;;;;;;;105.95;48.38;;;-4.40;99.90;;;;;;5080088;28;20056;-64
2022/12/13 04:41:53;;;;;;;122.68;53.42;;;-4.40;99.90;;;;;;5075890;28;20413;-65
2022/12/13 04:44:19;;;;;;;108.28;49.78;;;-4.30;99.90;;;;;;5076948;28;20054;-64
2022/12/13 04:46:45;;;;;;;106.20;51.70;;;-4.40;99.90;;;;;;5077950;28;20040;-63
2022/12/13 04:49:10;;;;;;;106.85;52.35;;;-4.80;99.90;;;;;;5075552;28;20093;-65
2022/12/13 04:51:36;;;;;;;115.68;53.45;;;-4.40;99.90;;;;;;5075415;28;20047;-63
2022/12/13 04:54:02;;;;;;;107.28;48.53;;;-5.00;99.90;;;;;;5076279;28;20129;-63
2022/12/13 04:56:27;;;;;;;111.80;51.55;;;-4.90;99.90;;;;;;5081481;28;20058;-63
2022/12/13 04:58:53;;;;;;;112.10;51.38;;;-4.40;99.90;;;;;;5082702;28;20039;-63
2022/12/13 05:01:19;;;;;;;109.47;51.28;;;-4.40;99.90;;;;;;5083971;28;20468;-64
2022/12/13 05:03:44;;;;;;;111.47;52.28;;;-4.30;99.90;;;;;;5096144;28;20476;-64
2022/12/13 05:06:12;;;;;;;107.63;52.22;;;-4.90;99.90;;;;;;5041223;28;20298;-65
2022/12/13 05:08:38;;;;;;;106.60;50.28;;;-4.30;99.90;;;;;;5076541;28;20245;-63
2022/12/13 05:11:05;;;;;;;100.65;47.80;;;-4.70;99.90;;;;;;5073467;28;20150;-66
2022/12/13 05:13:31;;;;;;;104.32;49.88;;;-4.80;99.90;;;;;;5076669;28;20366;-65
2022/12/13 05:15:59;;;;;;;108.63;50.47;;;-5.00;99.90;;;;;;5075999;28;20041;-63
2022/12/13 05:18:25;;;;;;;103.68;48.55;;;-4.90;99.90;;;;;;5109566;27;20048;-63
2022/12/13 05:20:51;;;;;;;107.10;51.75;;;-4.90;99.90;;;;;;5057711;28;20054;-63
2022/12/13 05:23:17;;;;;;;109.15;49.47;;;-4.60;99.90;;;;;;5077512;28;20207;-63
2022/12/13 05:25:43;;;;;;;102.72;49.08;;;-4.60;99.90;;;;;;5106003;27;20054;-63
2022/12/13 05:28:09;;;;;;;95.25;44.60;;;-4.50;99.90;;;;;;5076413;28;20040;-64
2022/12/13 05:30:37;;;;;;;100.68;48.22;;;-5.00;99.90;;;;;;5076851;28;20036;-63
2022/12/13 05:33:03;;;;;;;103.20;49.97;;;-4.40;99.90;;;;;;5077227;28;20039;-63
2022/12/13 05:35:32;;;;;;;92.05;47.83;;;-4.50;99.90;;;;;;5076322;28;20397;-64
2022/12/13 05:37:58;;;;;;;100.25;49.83;;;-5.10;99.90;;;;;;5084367;28;20040;-65
2022/12/13 05:40:26;;;;;;;109.97;51.63;;;-4.40;99.90;;;;;;5077776;28;20044;-64
2022/12/13 05:42:52;;;;;;;103.22;50.33;;;-4.50;99.90;;;;;;5075003;28;20040;-63
2022/12/13 05:45:18;;;;;;;96.88;52.33;;;-4.60;99.90;;;;;;5083572;28;20381;-63
2022/12/13 05:47:45;;;;;;;100.38;47.95;;;-4.40;99.90;;;;;;5077078;28;20629;-64
2022/12/13 05:50:11;;;;;;;92.75;44.03;;;-4.90;99.90;;;;;;5113738;28;21433;-62
2022/12/13 05:52:37;;;;;;;100.60;51.13;;;-4.40;99.90;;;;;;5081175;28;20294;-63
2022/12/13 05:55:03;;;;;;;100.97;48.40;;;-4.50;99.90;;;;;;5082223;28;20662;-63
2022/12/13 05:57:29;;;;;;;100.38;48.53;;;-4.40;99.90;;;;;;5076667;28;20041;-63
2022/12/13 05:59:58;;;;;;;100.68;48.35;;;-4.80;99.90;;;;;;5075958;28;20024;-63
2022/12/13 06:02:23;;;;;;;92.97;45.88;;;-4.70;99.90;;;;;;5077911;28;20509;-63
2022/12/13 06:04:49;;;;;;;88.70;44.58;;;-4.60;99.90;;;;;;5058648;28;20047;-64
2022/12/13 06:07:15;;;;;;;99.80;46.22;;;-4.80;99.90;;;;;;5075241;28;20063;-65
2022/12/13 06:09:41;;;;;;;89.75;46.70;;;-5.00;99.90;;;;;;5074768;28;20389;-64
2022/12/13 06:12:08;;;;;;;95.72;49.50;;;-5.00;99.90;;;;;;5076988;28;20040;-65
2022/12/13 06:14:34;;;;;;;103.10;50.03;;;-5.10;99.90;;;;;;5056714;28;20294;-65
2022/12/13 06:17:00;;;;;;;93.35;45.25;;;-4.90;99.90;;;;;;5074483;28;20259;-64
2022/12/13 06:19:26;;;;;;;98.97;48.70;;;-5.20;99.90;;;;;;5075492;28;20044;-64
2022/12/13 06:21:53;;;;;;;90.22;46.10;;;-4.60;99.90;;;;;;5074147;28;20035;-65
2022/12/13 06:24:21;;;;;;;82.60;41.90;;;-4.40;99.90;;;;;;5076030;28;20477;-65
2022/12/13 06:26:48;;;;;;;93.40;46.83;;;-4.90;99.90;;;;;;5075574;28;20048;-65
2022/12/13 06:29:15;;;;;;;84.80;46.85;;;-5.10;99.90;;;;;;5055440;28;20052;-65
2022/12/13 06:31:40;;;;;;;95.47;48.92;;;-4.40;99.90;;;;;;5057120;28;20075;-64
2022/12/13 06:34:06;;;;;;;86.90;47.92;;;-4.80;99.90;;;;;;5076143;28;20051;-64
2022/12/13 06:36:32;;;;;;;89.80;45.78;;;-5.10;99.90;;;;;;5075406;28;20580;-64
2022/12/13 06:39:05;;;;;;;89.07;47.55;;;-4.50;99.90;;;;;;5075457;28;20055;-65
2022/12/13 06:41:32;;;;;;;99.40;49.55;;;-4.90;99.90;;;;;;5061760;28;20063;-65
2022/12/13 06:43:58;;;;;;;79.63;43.38;;;-5.00;99.90;;;;;;5074878;28;20116;-63
2022/12/13 06:46:24;;;;;;;86.28;43.63;;;-5.00;99.90;;;;;;5074986;28;20186;-64
2022/12/13 06:48:50;;;;;;;89.97;44.83;;;-4.40;99.90;;;;;;5078340;28;20119;-64
2022/12/13 06:51:16;;;;;;;90.38;45.38;;;-5.10;99.90;;;;;;5107775;28;20043;-66
2022/12/13 06:53:42;;;;;;;84.10;42.90;;;-4.90;99.90;;;;;;5056365;28;20044;-65
2022/12/13 06:56:11;;;;;;;96.95;48.33;;;-4.60;99.90;;;;;;5073737;28;20063;-64
2022/12/13 06:58:37;;;;;;;88.95;47.00;;;-5.10;99.90;;;;;;5076722;28;20044;-65
2022/12/13 07:01:15;;;;;;;84.78;46.97;;;-4.90;99.90;;;;;;5078470;28;20063;-65
2022/12/13 07:03:41;;;;;;;93.00;48.15;;;-5.10;99.90;;;;;;5081577;28;20047;-65
2022/12/13 07:06:14;;;;;;;87.93;46.67;;;-4.70;99.90;;;;;;5079961;28;20100;-65
2022/12/13 07:08:41;;;;;;;96.57;48.40;;;-4.90;99.90;;;;;;5068659;28;20206;-62
2022/12/13 07:11:12;;;;;;;92.90;47.35;;;-4.70;99.90;;;;;;5118356;27;20063;-62
2022/12/13 07:13:37;;;;;;;85.50;45.42;;;-5.10;99.90;;;;;;5087474;28;20417;-63
2022/12/13 07:16:03;;;;;;;93.78;49.25;;;-5.10;99.90;;;;;;5085569;28;20043;-63
2022/12/13 07:18:29;;;;;;;88.63;45.30;;;-4.50;99.90;;;;;;5099188;28;20059;-64
2022/12/13 07:20:55;;;;;;;87.85;48.10;;;-4.70;99.90;;;;;;5086895;28;20476;-63
2022/12/13 07:23:20;;;;;;;89.50;47.55;;;-4.70;99.90;;;;;;5087379;28;20036;-63
2022/12/13 07:25:53;;;;;;;84.40;45.60;;;-4.60;99.90;;;;;;5087104;28;20046;-63
2022/12/13 07:28:20;;;;;;;88.07;42.80;;;-5.20;99.90;;;;;;5087713;28;20043;-62
2022/12/13 07:30:46;;;;;;;80.53;42.72;;;-5.10;99.90;;;;;;5087683;28;20044;-63
2022/12/13 07:33:12;;;;;;;81.07;42.33;;;-4.70;99.90;;;;;;5085766;28;20431;-63
2022/12/13 07:35:38;;;;;;;81.75;44.50;;;-4.40;99.90;;;;;;5083580;28;20051;-63
2022/12/13 07:38:05;;;;;;;83.28;42.85;;;-4.90;99.90;;;;;;5079698;28;20830;-65
2022/12/13 07:40:33;;;;;;;79.70;42.42;;;-5.10;99.90;;;;;;5079873;28;20901;-63
2022/12/13 07:42:59;;;;;;;78.80;42.08;;;-5.00;99.90;;;;;;5081020;28;20044;-64
2022/12/13 07:45:25;;;;;;;74.20;39.17;;;-4.40;99.90;;;;;;5081510;28;20046;-65
2022/12/13 07:47:51;;;;;;;78.25;41.63;;;-4.90;99.90;;;;;;5077089;28;20387;-63
2022/12/13 07:50:19;;;;;;;76.80;39.47;;;-5.10;99.90;;;;;;5078940;28;20040;-63
2022/12/13 07:52:49;;;;;;;76.88;39.50;;;-4.90;99.90;;;;;;5079379;28;20058;-64
2022/12/13 07:55:16;;;;;;;78.22;41.67;;;-5.10;99.90;;;;;;5078101;28;20053;-65
2022/12/13 07:57:43;;;;;;;80.30;43.30;;;-4.90;99.90;;;;;;5077346;28;20345;-63
2022/12/13 08:00:09;;;;;;;76.75;41.55;;;-4.70;99.90;;;;;;5079974;28;20112;-64
2022/12/13 08:02:35;;;;;;;78.90;40.95;;;-5.00;99.90;;;;;;5079840;28;20052;-63
2022/12/13 08:05:00;;;;;;;85.70;45.17;;;-4.70;99.90;;;;;;5075609;28;20161;-63
2022/12/13 08:07:26;;;;;;;75.35;39.85;;;-4.40;99.90;;;;;;5070904;28;20040;-63
2022/12/13 08:09:52;;;;;;;81.13;44.00;;;-4.40;99.90;;;;;;5077053;28;20048;-63
2022/12/13 08:12:17;;;;;;;83.60;43.13;;;-4.70;99.90;;;;;;5077859;28;20182;-65
2022/12/13 08:14:43;;;;;;;80.03;41.85;;;-4.60;99.90;;;;;;5078713;28;20047;-63
2022/12/13 08:17:09;;;;;;;88.38;47.25;;;-4.30;99.90;;;;;;5077143;28;20036;-64
2022/12/13 08:19:34;;;;;;;84.07;44.30;;;-4.90;99.90;;;;;;5071447;28;20227;-64
2022/12/13 08:22:01;;;;;;;87.80;45.53;;;-4.80;99.90;;;;;;5078623;28;20048;-65
2022/12/13 08:24:29;;;;;;;79.75;44.17;;;-4.30;99.90;;;;;;5109723;27;20039;-64
2022/12/13 08:26:59;;;;;;;78.43;41.03;;;-4.30;99.90;;;;;;5076540;28;20092;-66
2022/12/13 08:29:25;;;;;;;83.30;43.60;;;-4.30;99.90;;;;;;5062795;28;20040;-65
2022/12/13 08:31:51;;;;;;;90.88;45.92;;;-4.80;99.90;;;;;;5078121;28;20043;-64
2022/12/13 08:34:17;;;;;;;79.45;44.05;;;-4.30;99.90;;;;;;5076701;28;20443;-63
2022/12/13 08:36:43;;;;;;;80.50;43.20;;;-4.60;99.90;;;;;;5108696;27;20072;-63
2022/12/13 08:39:08;;;;;;;84.30;44.80;;;-4.00;99.90;;;;;;5090575;28;20136;-64
2022/12/13 08:41:34;;;;;;;75.55;43.25;;;-4.30;99.90;;;;;;5076420;28;20089;-63
2022/12/13 08:44:00;;;;;;;81.45;44.20;;;-4.50;99.90;;;;;;5077484;28;20094;-65
2022/12/13 08:46:25;;;;;;;76.00;41.67;;;-3.90;99.90;;;;;;5091992;28;20376;-65
2022/12/13 08:48:54;;;;;;;78.05;41.28;;;-4.10;99.90;;;;;;5076630;28;20361;-64
2022/12/13 08:51:24;;;;;;;74.30;42.08;;;-3.60;99.90;;;;;;5072253;28;20252;-63
2022/12/13 08:53:52;;;;;;;81.93;44.95;;;-4.20;99.90;;;;;;5077581;28;20586;-62
2022/12/13 08:56:19;;;;;;;78.03;40.53;;;-3.60;99.90;;;;;;5076201;28;20444;-63
2022/12/13 08:58:48;;;;;;;80.55;43.70;;;-3.60;99.90;;;;;;5073522;28;20047;-63
2022/12/13 09:01:14;;;;;;;78.32;40.85;;;-3.70;99.90;;;;;;5108428;27;20083;-64
2022/12/13 09:03:40;;;;;;;80.55;45.17;;;-3.80;99.90;;;;;;5077243;28;20171;-64
2022/12/13 09:06:07;;;;;;;86.05;44.95;;;-3.70;99.90;;;;;;5058804;28;20719;-63
2022/12/13 09:08:33;;;;;;;80.43;45.60;;;-3.80;99.90;;;;;;5076227;28;20044;-63
2022/12/13 09:10:59;;;;;;;69.72;40.03;;;-3.60;99.90;;;;;;5077154;28;20050;-64
2022/12/13 09:13:27;;;;;;;79.97;42.95;;;-3.70;99.90;;;;;;5075828;28;20090;-62
2022/12/13 09:15:52;;;;;;;75.80;41.58;;;-3.80;99.90;;;;;;5077920;28;20044;-63
2022/12/13 09:18:18;;;;;;;82.28;44.28;;;-3.80;99.90;;;;;;5078799;28;20654;-64
2022/12/13 09:20:44;;;;;;;84.53;46.47;;;-3.10;99.90;;;;;;5077758;28;20058;-63
2022/12/13 09:23:09;;;;;;;76.25;43.30;;;-3.50;99.90;;;;;;5057808;28;20040;-64
2022/12/13 09:25:35;;;;;;;72.75;39.65;;;-3.40;99.90;;;;;;5078826;28;20067;-65
2022/12/13 09:28:01;;;;;;;77.05;42.42;;;-3.70;99.90;;;;;;5108002;27;20044;-63
2022/12/13 09:30:27;;;;;;;82.82;47.15;;;-3.60;99.90;;;;;;5108917;27;20155;-64
2022/12/13 09:32:52;;;;;;;84.82;47.95;;;-2.90;99.90;;;;;;5093885;27;20058;-63
2022/12/13 09:35:18;;;;;;;82.32;46.63;;;-3.50;99.90;;;;;;5060061;28;20040;-64
2022/12/13 09:37:44;;;;;;;82.30;47.60;;;-2.80;99.90;;;;;;5074436;28;20036;-64
2022/12/13 09:40:22;;;;;;;81.13;45.95;;;-3.40;99.90;;;;;;5074127;28;20101;-63
2022/12/13 09:42:51;;;;;;;79.80;46.85;;;-2.70;99.90;;;;;;5078696;28;20036;-64
2022/12/13 09:45:17;;;;;;;85.88;47.17;;;-3.30;99.90;;;;;;5074281;28;20044;-64
2022/12/13 09:47:45;;;;;;;77.55;41.30;;;-3.00;99.90;;;;;;5078349;28;20044;-62
2022/12/13 09:50:16;;;;;;;78.70;44.42;;;-3.00;99.90;;;;;;5078064;28;20036;-64
2022/12/13 09:52:44;;;;;;;82.50;44.88;;;-2.60;99.90;;;;;;5076526;28;20975;-63
2022/12/13 09:55:30;;;;;;;85.28;47.17;;;-2.60;99.90;;;;;;5075632;28;20479;-65
2022/12/13 09:57:57;;;;;;;78.45;45.53;;;-2.50;99.90;;;;;;5069511;28;20092;-62
2022/12/13 10:00:27;;;;;;;83.30;46.28;;;-3.10;99.90;;;;;;5076301;28;20036;-63
2022/12/13 10:02:56;;;;;;;79.00;47.00;;;-2.70;99.90;;;;;;5077929;28;20114;-62
2022/12/13 10:05:25;;;;;;;78.03;46.50;;;-2.20;99.90;;;;;;5075922;28;20044;-64
2022/12/13 10:07:54;;;;;;;76.03;45.10;;;-1.60;99.90;;;;;;5076399;28;20740;-63
2022/12/13 10:10:20;;;;;;;67.57;42.40;;;-1.50;99.90;;;;;;5075607;28;20054;-63
2022/12/13 10:12:57;;;;;;;70.68;42.30;;;-1.00;99.90;;;;;;5109998;28;20048;-63
2022/12/13 10:15:24;;;;;;;64.72;40.05;;;-0.50;99.90;;;;;;5075694;28;20466;-63
2022/12/13 10:17:50;;;;;;;56.72;37.78;;;0.10;99.90;;;;;;5077858;28;20040;-63
2022/12/13 10:20:20;;;;;;;54.85;34.58;;;0.30;99.90;;;;;;5077755;28;20481;-65
2022/12/13 10:22:46;;;;;;;53.38;36.72;;;0.70;99.90;;;;;;5076546;28;20105;-62
2022/12/13 10:25:13;;;;;;;53.80;36.63;;;1.10;99.90;;;;;;5059393;28;20055;-62
2022/12/13 10:27:44;;;;;;;55.45;36.95;;;1.30;99.90;;;;;;5074906;28;20300;-64
2022/12/13 10:30:12;;;;;;;49.63;32.78;;;1.50;99.90;;;;;;5077157;28;20051;-63
2022/12/13 10:32:52;;;;;;;49.72;33.60;;;1.50;99.90;;;;;;5077209;28;20044;-63
2022/12/13 10:35:23;;;;;;;49.95;33.58;;;1.80;99.90;;;;;;5081966;28;20036;-63
2022/12/13 10:37:49;;;;;;;43.00;31.70;;;2.00;99.90;;;;;;5073611;28;20067;-63
2022/12/13 10:40:31;;;;;;;46.17;30.13;;;1.90;99.90;;;;;;5079681;28;20067;-63
2022/12/13 10:43:20;;;;;;;43.83;30.15;;;2.30;99.90;;;;;;5078486;28;20040;-63
2022/12/13 10:45:57;;;;;;;40.70;29.33;;;2.60;99.90;;;;;;5080616;28;20206;-64
2022/12/13 10:48:39;;;;;;;43.08;30.60;;;2.70;99.90;;;;;;5080880;28;20032;-65
2022/12/13 10:51:11;;;;;;;44.97;30.38;;;2.70;99.90;;;;;;5079728;28;20048;-63
2022/12/13 10:53:47;;;;;;;39.13;27.67;;;2.90;99.90;;;;;;5080215;28;20048;-63
2022/12/13 10:56:13;;;;;;;40.78;28.60;;;3.20;99.90;;;;;;5113522;27;20951;-63
2022/12/13 10:58:45;;;;;;;40.95;29.00;;;3.20;99.90;;;;;;5077665;28;20044;-64
2022/12/13 11:01:21;;;;;;;37.33;27.40;;;3.00;99.90;;;;;;5060102;28;20372;-64
2022/12/13 11:04:05;;;;;;;37.42;26.92;;;3.00;99.90;;;;;;5078612;28;20040;-64
2022/12/13 11:06:43;;;;;;;;;;;3.10;99.90;;;;;;5080587;28;20405;-64
2022/12/13 11:09:25;;;;;;;36.70;26.02;;;3.20;99.90;;;;;;5080293;28;20340;-64
2022/12/13 11:11:52;;;;;;;36.63;25.73;;;3.70;99.90;;;;;;5080937;28;20367;-64
2022/12/13 11:14:20;;;;;;;36.83;24.73;;;3.80;99.90;;;;;;5077841;28;20040;-64
2022/12/13 11:16:53;;;;;;;36.20;27.10;;;3.90;99.90;;;;;;5112366;27;20088;-64
2022/12/13 11:19:42;;;;;;;36.78;26.42;;;4.00;99.90;;;;;;5078546;28;20087;-65
2022/12/13 11:22:17;;;;;;;37.90;26.52;;;3.90;99.90;;;;;;5080866;28;20545;-64
2022/12/13 11:24:50;;;;;;;35.85;26.75;;;4.10;99.90;;;;;;5061456;28;20047;-64
2022/12/13 11:27:32;;;;;;;34.77;25.50;;;4.20;99.90;;;;;;5075272;28;20071;-65
2022/12/13 11:30:26;;;;;;;34.20;24.95;;;4.40;99.90;;;;;;5079636;28;20705;-65
2022/12/13 11:33:16;;;;;;;35.45;25.90;;;4.50;99.90;;;;;;5080615;28;20349;-64
2022/12/13 11:36:01;;;;;;;35.00;25.98;;;4.60;99.90;;;;;;5078790;28;20497;-64
2022/12/13 11:38:44;;;;;;;32.10;25.27;;;4.60;99.90;;;;;;5080103;28;20052;-65
2022/12/13 11:41:24;;;;;;;33.42;25.67;;;4.40;99.90;;;;;;5078699;28;20063;-64
2022/12/13 11:44:42;;;;;;;33.65;24.58;;;4.60;99.90;;;;;;5078235;28;20390;-64
2022/12/13 11:47:24;;;;;;;33.70;25.05;;;4.50;99.90;;;;;;5050877;28;20096;-62
2022/12/13 11:49:51;;;;;;;29.77;22.75;;;4.60;99.90;;;;;;5110504;27;20295;-64
2022/12/13 11:52:39;;;;;;;29.42;23.05;;;4.60;99.90;;;;;;5078586;28;20043;-64
2022/12/13 11:55:35;;;;;;;30.67;24.08;;;4.30;99.90;;;;;;5079990;28;20039;-63
2022/12/13 11:58:26;;;;;;;34.53;24.17;;;4.20;99.90;;;;;;5078207;28;20048;-63
2022/12/13 12:01:06;;;;;;;31.33;22.98;;;3.60;99.90;;;;;;5110612;27;20036;-63
2022/12/13 12:03:43;;;;;;;31.15;24.13;;;3.20;99.90;;;;;;5059014;28;20044;-64
2022/12/13 12:06:28;;;;;;;32.60;23.75;;;3.10;99.90;;;;;;5080302;28;20047;-64
2022/12/13 12:09:04;;;;;;;34.60;24.77;;;3.00;99.90;;;;;;5080250;28;20039;-64
2022/12/13 12:11:41;;;;;;;31.05;23.77;;;3.40;99.90;;;;;;5079162;28;20051;-64
2022/12/13 12:14:35;;;;;;;29.88;22.08;;;3.50;99.90;;;;;;5077627;28;20047;-66
2022/12/13 12:17:02;;;;;;;30.50;21.50;;;4.00;99.90;;;;;;5077215;28;20231;-65
2022/12/13 12:19:39;;;;;;;30.52;22.58;;;4.60;99.90;;;;;;5078858;28;20028;-66
2022/12/13 12:22:10;;;;;;;29.13;21.85;;;4.80;99.90;;;;;;5061618;28;20748;-64
2022/12/13 12:24:43;;;;;;;26.58;21.77;;;4.70;99.90;;;;;;5083586;28;20048;-64
2022/12/13 12:27:27;;;;;;;27.08;21.20;;;5.00;99.90;;;;;;5081851;28;20051;-64
2022/12/13 12:30:20;;;;;;;29.20;21.85;;;4.80;99.90;;;;;;5082966;28;20448;-64
2022/12/13 12:33:01;;;;;;;28.83;21.50;;;4.40;99.90;;;;;;5110023;27;20089;-65
2022/12/13 12:35:39;;;;;;;28.20;21.77;;;4.50;99.90;;;;;;5076853;28;20060;-65
2022/12/13 12:38:38;;;;;;;30.45;23.02;;;3.90;99.90;;;;;;5061437;28;20040;-65
2022/12/13 12:41:39;;;;;;;27.65;20.95;;;3.50;99.90;;;;;;5074809;28;20066;-65
2022/12/13 12:44:22;;;;;;;28.67;21.52;;;3.40;99.90;;;;;;5076195;28;20062;-65
2022/12/13 12:47:03;;;;;;;;;;;3.20;99.90;;;;;;5062437;28;20186;-64